Time;durP1;ratioP1;P1;durP2;ratioP2;P2;SDS_P1;SDS_P2;PMS_P1;PMS_P2;Temp;Humidity;BMP_temperature;BMP_pressure;BME280_temperature;BME280_humidity;BME280_pressure;Samples;Min_cycle;Max_cycle;Signal;HPM_P1;HPM_P2
2024/02/18 00:01:04;;;;;;;93.55;44.53;;;;;;;9.03;100.00;102125.47;10455222;28;20440;-81
2024/02/18 00:06:08;;;;;;;101.78;44.80;;;;;;;8.94;100.00;102114.28;10450168;28;20398;-80
2024/02/18 00:11:11;;;;;;;92.55;43.58;;;;;;;8.79;100.00;102110.50;10442043;28;20105;-81
2024/02/18 00:16:15;;;;;;;97.38;43.17;;;;;;;8.84;100.00;102098.63;10459492;28;20148;-81
2024/02/18 00:21:19;;;;;;;106.13;46.75;;;;;;;8.81;100.00;102079.16;10449694;28;20096;-81
2024/02/18 00:26:22;;;;;;;89.93;44.95;;;;;;;8.61;100.00;102080.06;10450310;28;20402;-78
2024/02/18 00:31:46;;;;;;;95.25;45.53;;;;;;;8.56;100.00;102071.41;10446767;28;20033;-79
2024/02/18 00:36:49;;;;;;;95.18;44.67;;;;;;;8.48;100.00;102063.69;10448511;28;20049;-79
2024/02/18 00:41:53;;;;;;;99.45;44.80;;;;;;;8.45;100.00;102071.84;10456284;28;20025;-80
2024/02/18 00:46:57;;;;;;;100.63;43.90;;;;;;;8.42;100.00;102060.38;10455314;28;20045;-78
2024/02/18 00:52:07;;;;;;;88.22;41.20;;;;;;;8.21;100.00;102072.94;10446680;28;20361;-80
2024/02/18 00:57:11;;;;;;;88.53;40.33;;;;;;;8.16;100.00;102067.78;10448799;28;20047;-80
2024/02/18 01:02:15;;;;;;;80.85;40.70;;;;;;;8.23;100.00;102063.91;10442196;28;20033;-81
2024/02/18 01:07:18;;;;;;;87.88;40.95;;;;;;;8.16;100.00;102059.75;10446767;28;20052;-80
2024/02/18 01:12:21;;;;;;;80.70;38.47;;;;;;;8.21;100.00;102059.56;10450146;28;20101;-79
2024/02/18 01:17:25;;;;;;;90.53;41.65;;;;;;;8.20;100.00;102055.13;10456324;28;20557;-81
2024/02/18 01:22:28;;;;;;;82.72;38.38;;;;;;;8.32;100.00;102046.56;10445909;28;20033;-79
2024/02/18 01:27:31;;;;;;;74.75;37.45;;;;;;;8.25;100.00;102034.38;10442594;28;20103;-79
2024/02/18 01:32:36;;;;;;;75.15;37.25;;;;;;;8.43;100.00;102020.16;10448102;28;20045;-79
2024/02/18 01:37:39;;;;;;;70.78;35.95;;;;;;;8.53;100.00;102021.50;10448194;28;20053;-79
2024/02/18 01:42:43;;;;;;;75.75;34.63;;;;;;;8.55;100.00;102034.81;10452790;28;20037;-80
2024/02/18 01:47:47;;;;;;;62.55;32.45;;;;;;;8.63;100.00;102024.59;10448885;28;20116;-81
2024/02/18 01:52:52;;;;;;;68.53;32.35;;;;;;;8.64;100.00;102026.38;10441582;28;20487;-79
2024/02/18 01:57:55;;;;;;;61.22;31.90;;;;;;;8.70;100.00;102019.84;10447241;28;20057;-79
2024/02/18 02:03:01;;;;;;;64.22;32.33;;;;;;;8.74;100.00;102018.75;10443602;28;20412;-79
2024/02/18 02:08:05;;;;;;;64.10;32.42;;;;;;;8.72;100.00;102010.81;10458016;28;20060;-77
2024/02/18 02:13:08;;;;;;;55.80;29.83;;;;;;;8.73;100.00;102003.63;10459469;28;20036;-80
2024/02/18 02:18:13;;;;;;;57.50;31.23;;;;;;;8.72;100.00;102007.22;10447230;28;20449;-80
2024/02/18 02:23:16;;;;;;;57.17;29.73;;;;;;;8.78;100.00;101999.78;10446328;28;20041;-80
2024/02/18 02:28:21;;;;;;;54.28;27.42;;;;;;;8.83;100.00;101994.19;10443421;28;20037;-79
2024/02/18 02:33:26;;;;;;;46.40;24.23;;;;;;;8.79;100.00;101995.28;10445999;28;20055;-79
2024/02/18 02:38:29;;;;;;;50.60;26.17;;;;;;;8.93;100.00;101987.44;10448987;28;20068;-80
2024/02/18 02:43:32;;;;;;;53.63;25.98;;;;;;;8.95;100.00;101982.03;10441912;28;20048;-80
2024/02/18 02:48:37;;;;;;;43.30;25.52;;;;;;;8.91;100.00;101975.06;10443611;28;20132;-80
2024/02/18 02:53:40;;;;;;;44.35;24.55;;;;;;;8.85;100.00;101968.19;10438090;28;20075;-80
2024/02/18 02:58:43;;;;;;;41.83;21.92;;;;;;;8.94;100.00;101973.13;10447294;28;20081;-80
2024/02/18 03:03:47;;;;;;;40.40;18.98;;;;;;;8.85;100.00;101970.88;10451767;28;20071;-81
2024/02/18 03:08:50;;;;;;;38.97;20.83;;;;;;;8.96;100.00;101954.25;10449914;28;20099;-80
2024/02/18 03:13:54;;;;;;;38.22;21.63;;;;;;;9.04;99.13;101950.25;10445354;28;20033;-80
2024/02/18 03:18:58;;;;;;;37.05;21.52;;;;;;;8.93;99.10;101949.06;10441707;28;20041;-80
2024/02/18 03:24:01;;;;;;;36.90;20.80;;;;;;;8.95;99.02;101953.41;10439304;28;20470;-79
2024/02/18 03:29:04;;;;;;;39.08;20.23;;;;;;;8.93;98.64;101946.38;10451683;28;20049;-80
2024/02/18 03:34:09;;;;;;;36.03;19.25;;;;;;;8.94;98.62;101934.69;10455373;28;20038;-80
2024/02/18 03:39:12;;;;;;;31.95;18.77;;;;;;;8.84;98.99;101927.13;10447545;28;20045;-78
2024/02/18 03:44:15;;;;;;;38.05;19.80;;;;;;;8.83;98.82;101922.72;10441141;28;20647;-78
2024/02/18 03:49:20;;;;;;;40.60;19.45;;;;;;;8.90;98.35;101925.09;10442174;28;20075;-79
2024/02/18 03:54:23;;;;;;;34.92;19.05;;;;;;;8.88;98.10;101919.78;10448202;28;20484;-79
2024/02/18 03:59:27;;;;;;;39.25;20.85;;;;;;;8.99;96.87;101919.25;10462720;28;20552;-79
2024/02/18 04:04:31;;;;;;;31.27;18.73;;;;;;;8.97;96.49;101918.50;10469416;28;20033;-81
2024/02/18 04:09:34;;;;;;;32.20;17.80;;;;;;;8.92;96.48;101910.66;10457414;28;20052;-81
2024/02/18 04:14:37;;;;;;;35.90;18.27;;;;;;;8.92;96.43;101901.78;10456326;28;20116;-80
2024/02/18 04:19:41;;;;;;;30.90;18.60;;;;;;;9.01;95.92;101891.44;10448668;28;20527;-79
2024/02/18 04:24:45;;;;;;;35.50;18.23;;;;;;;9.10;95.10;101890.09;10459992;28;20045;-79
2024/02/18 04:29:48;;;;;;;32.72;16.58;;;;;;;9.14;94.56;101877.41;10445887;28;20048;-81
2024/02/18 04:34:52;;;;;;;29.13;16.80;;;;;;;9.13;94.01;101876.53;10446354;28;20049;-82
2024/02/18 04:39:55;;;;;;;34.88;16.83;;;;;;;9.20;93.58;101890.50;10450963;28;20440;-81
2024/02/18 04:44:59;;;;;;;30.55;17.52;;;;;;;9.22;93.53;101878.75;10455522;28;20102;-80
2024/02/18 04:50:04;;;;;;;31.45;17.10;;;;;;;9.23;93.28;101876.94;10460787;28;20053;-80
2024/02/18 04:55:08;;;;;;;33.13;17.55;;;;;;;9.21;93.44;101868.09;10461733;28;20420;-81
2024/02/18 05:00:12;;;;;;;34.35;16.98;;;;;;;9.18;93.93;101857.53;10456613;28;20045;-80
2024/02/18 05:05:16;;;;;;;34.95;16.80;;;;;;;9.20;93.50;101848.47;10446822;28;20663;-80
2024/02/18 05:10:19;;;;;;;28.83;13.80;;;;;;;9.08;94.68;101837.50;10459177;28;20069;-82
2024/02/18 05:15:24;;;;;;;30.20;15.63;;;;;;;9.21;93.81;101830.56;10437371;28;20045;-81
2024/02/18 05:20:28;;;;;;;27.63;15.25;;;;;;;9.18;93.70;101828.91;10442780;28;20080;-82
2024/02/18 05:25:31;;;;;;;25.67;15.82;;;;;;;9.18;93.47;101820.84;10450566;28;20112;-80
2024/02/18 05:30:34;;;;;;;29.08;14.77;;;;;;;9.09;94.21;101816.00;10436557;28;20045;-81
2024/02/18 05:35:39;;;;;;;29.92;15.75;;;;;;;8.97;95.63;101801.41;10456970;28;20135;-82
2024/02/18 05:40:42;;;;;;;36.25;15.07;;;;;;;9.07;94.81;101804.47;10453081;28;20098;-79
2024/02/18 05:45:45;;;;;;;28.33;14.82;;;;;;;9.02;95.34;101804.72;10454067;28;20481;-81
2024/02/18 05:50:50;;;;;;;30.05;14.57;;;;;;;9.03;95.02;101790.38;10448553;28;20528;-81
2024/02/18 05:55:54;;;;;;;27.73;14.25;;;;;;;8.94;96.33;101796.22;10452213;28;20044;-79
2024/02/18 06:00:57;;;;;;;32.88;14.38;;;;;;;9.10;94.67;101787.34;10457082;28;20048;-80
2024/02/18 06:06:01;;;;;;;26.73;13.52;;;;;;;9.00;95.53;101789.66;10446957;28;20461;-81
2024/02/18 06:11:07;;;;;;;24.02;13.20;;;;;;;9.07;94.99;101783.03;10451652;28;20467;-81
2024/02/18 06:16:10;;;;;;;28.48;13.45;;;;;;;9.02;94.87;101774.34;10455078;28;20453;-81
2024/02/18 06:21:21;;;;;;;29.92;14.50;;;;;;;9.08;94.25;101766.00;10444993;28;20120;-81
2024/02/18 06:26:25;;;;;;;22.02;11.63;;;;;;;9.06;94.11;101768.75;10448894;28;20495;-79
2024/02/18 06:31:28;;;;;;;24.98;12.73;;;;;;;9.25;92.88;101765.09;10445051;28;20144;-81
2024/02/18 06:36:35;;;;;;;21.75;12.13;;;;;;;9.03;93.53;101765.38;10465242;28;20117;-80
2024/02/18 06:41:39;;;;;;;31.95;13.32;;;;;;;9.20;92.91;101753.75;10437673;28;20143;-80
2024/02/18 06:46:42;;;;;;;21.10;11.90;;;;;;;9.17;93.02;101751.25;10450162;28;20044;-81
2024/02/18 06:51:46;;;;;;;23.77;11.65;;;;;;;9.20;92.25;101745.72;10443400;28;20059;-82
2024/02/18 06:56:50;;;;;;;23.00;11.70;;;;;;;9.08;92.13;101743.69;10449355;28;20112;-80
2024/02/18 07:01:53;;;;;;;19.63;10.43;;;;;;;9.19;91.04;101735.94;10440964;28;20471;-77
2024/02/18 07:06:57;;;;;;;20.00;10.38;;;;;;;9.02;91.31;101737.72;10446583;28;20045;-77
2024/02/18 07:12:00;;;;;;;20.70;10.70;;;;;;;9.23;90.38;101724.97;10431504;28;20573;-81
2024/02/18 07:17:04;;;;;;;20.15;10.90;;;;;;;9.38;89.05;101715.22;10440783;28;20041;-81
2024/02/18 07:22:08;;;;;;;17.00;10.18;;;;;;;9.43;88.57;101720.31;10444581;28;20064;-82
2024/02/18 07:27:12;;;;;;;15.02;9.55;;;;;;;9.55;87.59;101705.38;10463193;28;20045;-80
2024/02/18 07:32:15;;;;;;;16.95;8.32;;;;;;;9.42;87.43;101706.03;10461471;28;20068;-82
2024/02/18 07:37:19;;;;;;;22.10;8.27;;;;;;;9.48;86.96;101705.69;10460669;28;20045;-80
2024/02/18 07:42:22;;;;;;;15.55;9.30;;;;;;;9.67;85.81;101694.81;10446893;28;20053;-82
2024/02/18 07:47:26;;;;;;;15.73;9.68;;;;;;;9.70;85.44;101691.94;10431803;28;20452;-81
2024/02/18 07:52:31;;;;;;;14.73;7.55;;;;;;;9.69;85.15;101687.53;10444138;28;20124;-79
2024/02/18 07:57:34;;;;;;;15.18;7.85;;;;;;;9.73;84.71;101691.75;10457774;28;20148;-79
2024/02/18 08:02:37;;;;;;;12.68;7.75;;;;;;;9.75;84.71;101678.28;10449501;28;20049;-82
2024/02/18 08:07:42;;;;;;;12.10;7.30;;;;;;;9.83;83.13;101673.34;10442845;28;20053;-82
2024/02/18 08:12:45;;;;;;;10.90;6.63;;;;;;;9.75;82.40;101667.53;10453208;28;20675;-79
2024/02/18 08:17:48;;;;;;;12.52;6.25;;;;;;;9.91;81.08;101659.50;10456975;28;20076;-81
2024/02/18 08:22:53;;;;;;;11.45;6.05;;;;;;;9.83;81.38;101659.06;10458664;28;20075;-78
2024/02/18 08:27:56;;;;;;;14.65;5.70;;;;;;;9.89;79.83;101651.53;10452474;28;20064;-82
2024/02/18 08:32:59;;;;;;;9.80;5.22;;;;;;;9.76;79.79;101645.09;10450568;28;20063;-80
2024/02/18 08:38:04;;;;;;;12.38;8.25;;;;;;;9.88;78.80;101638.22;10460385;28;20045;-81
2024/02/18 08:43:07;;;;;;;8.68;6.13;;;;;;;9.72;79.28;101628.31;10456495;28;20048;-81
2024/02/18 08:48:11;;;;;;;8.23;4.57;;;;;;;9.77;78.63;101627.22;10460352;28;20059;-79
2024/02/18 08:53:16;;;;;;;26.40;13.80;;;;;;;9.88;78.80;101614.94;10467655;28;20036;-81
2024/02/18 08:58:19;;;;;;;32.55;19.63;;;;;;;9.70;79.18;101624.88;10456326;28;20041;-81
2024/02/18 09:03:22;;;;;;;12.95;7.90;;;;;;;9.79;78.93;101609.19;10452704;28;20037;-79
2024/02/18 09:08:27;;;;;;;13.85;6.55;;;;;;;9.93;78.97;101601.25;10449934;28;20068;-80
2024/02/18 09:13:30;;;;;;;11.52;5.20;;;;;;;9.93;77.73;101610.16;10456918;28;20076;-81
2024/02/18 09:18:33;;;;;;;9.05;5.72;;;;;;;9.98;78.11;101598.25;10457332;28;20048;-81
2024/02/18 09:23:37;;;;;;;10.60;6.47;;;;;;;9.65;79.51;101586.72;10450934;28;20037;-80
2024/02/18 09:28:40;;;;;;;7.97;4.47;;;;;;;9.73;78.19;101595.16;10451571;28;20084;-82
2024/02/18 09:33:43;;;;;;;11.75;5.82;;;;;;;9.81;79.79;101575.06;10435074;28;20119;-82
2024/02/18 09:38:48;;;;;;;9.45;5.65;;;;;;;9.81;80.11;101575.94;10463780;28;20368;-81
2024/02/18 09:43:54;;;;;;;6.93;5.38;;;;;;;9.76;80.62;101569.97;10448007;28;20527;-81
2024/02/18 09:48:57;;;;;;;15.23;6.53;;;;;;;9.98;81.49;101552.63;10459502;28;20059;-84
2024/02/18 09:54:05;;;;;;;9.55;5.13;;;;;;;9.47;81.65;101555.59;10454316;28;20076;-79
2024/02/18 09:59:08;;;;;;;12.75;6.28;;;;;;;9.51;83.85;101544.56;10455241;28;20049;-81
2024/02/18 10:04:13;;;;;;;8.93;5.22;;;;;;;9.24;85.38;101549.75;10447589;28;20090;-80
2024/02/18 10:09:17;;;;;;;10.68;5.25;;;;;;;9.40;84.73;101544.34;10459491;28;20120;-80
2024/02/18 10:14:23;;;;;;;8.18;5.95;;;;;;;9.35;86.37;101519.63;10469450;28;20064;-81
2024/02/18 10:19:26;;;;;;;10.52;5.40;;;;;;;9.21;88.29;101514.19;10473353;28;20067;-82
2024/02/18 10:24:31;;;;;;;10.88;5.97;;;;;;;9.28;89.04;101500.34;10474272;28;20045;-82
2024/02/18 10:29:36;;;;;;;14.98;7.05;;;;;;;9.15;92.37;101495.78;10479400;28;20056;-79
2024/02/18 10:34:39;;;;;;;9.80;6.20;;;;;;;9.25;94.37;101483.56;10475601;28;20052;-78
2024/02/18 10:39:46;;;;;;;13.77;6.65;;;;;;;8.91;96.80;101476.59;10482862;28;20431;-84
2024/02/18 10:44:53;;;;;;;13.20;6.78;;;;;;;9.19;98.07;101473.22;10483522;28;20100;-81
2024/02/18 10:50:01;;;;;;;10.70;7.03;;;;;;;9.17;99.10;101467.06;10485745;28;20049;-78
2024/02/18 10:55:11;;;;;;;10.48;6.20;;;;;;;8.72;100.00;101452.63;10490284;28;20049;-84
2024/02/18 11:00:17;;;;;;;8.43;5.40;;;;;;;8.36;100.00;101451.03;10497166;28;20056;-84
2024/02/18 11:05:25;;;;;;;12.23;6.10;;;;;;;8.33;100.00;101440.50;10493681;28;20052;-81
2024/02/18 11:10:31;;;;;;;8.77;4.90;;;;;;;8.27;100.00;101441.69;10497524;28;20053;-86
2024/02/18 11:15:34;;;;;;;9.85;6.00;;;;;;;8.35;100.00;101430.56;10499447;28;20033;-79
2024/02/18 11:20:38;;;;;;;6.15;4.45;;;;;;;8.33;100.00;101419.94;10497662;28;20029;-78
2024/02/18 11:25:45;;;;;;;10.57;4.82;;;;;;;8.08;100.00;101399.00;10496555;28;20040;-82
2024/02/18 11:30:48;;;;;;;10.35;5.32;;;;;;;8.21;100.00;101390.31;10500282;28;20048;-84
2024/02/18 11:36:13;;;;;;;9.95;4.75;;;;;;;8.16;100.00;101379.84;10497450;28;20074;-79
2024/02/18 11:41:19;;;;;;;6.93;5.35;;;;;;;8.02;100.00;101380.63;10461251;28;20065;-79
2024/02/18 11:46:28;;;;;;;7.30;5.20;;;;;;;8.39;100.00;101355.34;10461619;28;20113;-79
2024/02/18 11:51:33;;;;;;;8.95;5.18;;;;;;;8.29;100.00;101353.28;10458967;28;20069;-78
2024/02/18 11:56:38;;;;;;;9.95;5.82;;;;;;;8.15;100.00;101338.00;10461535;28;20124;-78
2024/02/18 12:01:41;;;;;;;9.25;5.35;;;;;;;8.31;100.00;101327.25;10460896;28;20053;-79
2024/02/18 12:06:44;;;;;;;12.68;7.63;;;;;;;8.31;100.00;101316.56;10460256;28;20037;-80
2024/02/18 12:11:50;;;;;;;10.73;6.75;;;;;;;8.24;100.00;101308.03;10463045;28;20079;-82
2024/02/18 12:16:53;;;;;;;10.63;6.65;;;;;;;8.25;100.00;101304.38;10469305;28;20045;-79
2024/02/18 12:21:58;;;;;;;13.30;7.55;;;;;;;8.02;100.00;101289.63;10473827;28;20132;-85
2024/02/18 12:27:04;;;;;;;10.07;6.32;;;;;;;8.37;100.00;101270.72;10487845;28;20088;-84
2024/02/18 12:32:07;;;;;;;13.27;7.00;;;;;;;8.46;100.00;101262.16;10484542;28;20071;-81
2024/02/18 12:37:11;;;;;;;14.02;6.10;;;;;;;8.56;100.00;101258.00;10460828;28;20067;-81
2024/02/18 12:42:20;;;;;;;10.45;6.07;;;;;;;8.66;100.00;101250.28;10464004;28;20063;-82
2024/02/18 12:47:23;;;;;;;14.30;7.15;;;;;;;8.49;100.00;101239.72;10468438;28;20063;-83
2024/02/18 12:52:27;;;;;;;9.73;6.25;;;;;;;8.50;100.00;101233.38;10466166;28;20060;-82
2024/02/18 12:57:32;;;;;;;13.95;6.10;;;;;;;8.31;100.00;101223.75;10475388;28;20504;-83
2024/02/18 13:02:35;;;;;;;10.80;5.82;;;;;;;8.36;100.00;101215.44;10472237;28;20052;-84
2024/02/18 13:07:39;;;;;;;8.25;6.35;;;;;;;8.46;100.00;101197.06;10468900;28;20128;-84
2024/02/18 13:12:46;;;;;;;9.82;5.88;;;;;;;8.43;100.00;101186.50;10470563;28;20103;-79
2024/02/18 13:17:51;;;;;;;8.60;5.65;;;;;;;8.29;100.00;101168.56;10478467;28;20091;-82
2024/02/18 13:22:56;;;;;;;8.43;5.57;;;;;;;8.46;100.00;101144.34;10475801;28;20044;-83
2024/02/18 13:28:01;;;;;;;9.25;4.85;;;;;;;8.53;100.00;101131.44;10468690;28;20044;-80
2024/02/18 13:33:15;;;;;;;11.18;5.53;;;;;;;8.62;100.00;101117.50;10470958;28;20087;-79
2024/02/18 13:38:19;;;;;;;8.35;5.57;;;;;;;8.69;100.00;101113.47;10472123;28;20044;-80
2024/02/18 13:43:25;;;;;;;8.15;5.20;;;;;;;8.58;100.00;101099.88;10445044;28;20325;-79
2024/02/18 13:48:28;;;;;;;10.60;5.55;;;;;;;8.75;100.00;101086.34;10464567;28;20053;-81
2024/02/18 13:53:31;;;;;;;8.02;5.30;;;;;;;8.69;100.00;101080.47;10471932;28;20139;-81
2024/02/18 13:58:41;;;;;;;9.38;5.45;;;;;;;8.53;100.00;101070.75;10457022;28;20056;-83
2024/02/18 14:03:44;;;;;;;11.55;5.93;;;;;;;8.48;100.00;101056.78;10459536;28;20095;-82
2024/02/18 14:08:49;;;;;;;8.30;5.40;;;;;;;8.42;100.00;101051.75;10461626;28;20041;-81
2024/02/18 14:14:02;;;;;;;15.35;6.05;;;;;;;8.46;100.00;101044.44;10452847;28;20150;-81
2024/02/18 14:19:07;;;;;;;10.40;6.55;;;;;;;8.29;100.00;101019.53;10461810;28;20049;-82
2024/02/18 14:24:20;;;;;;;10.05;5.78;;;;;;;8.23;100.00;101008.31;10450177;28;20049;-80
2024/02/18 14:29:25;;;;;;;10.47;4.97;;;;;;;7.75;100.00;101004.97;10458090;28;20045;-79
2024/02/18 14:34:28;;;;;;;6.43;4.97;;;;;;;8.01;100.00;101003.41;10448254;28;20147;-80
2024/02/18 14:39:31;;;;;;;5.65;4.28;;;;;;;7.99;100.00;100992.81;10458606;28;20040;-79
2024/02/18 14:44:36;;;;;;;7.90;4.93;;;;;;;7.86;100.00;100978.44;10454584;28;20048;-78
2024/02/18 14:49:39;;;;;;;8.63;4.95;;;;;;;7.80;100.00;100963.63;10451702;28;20045;-78
2024/02/18 14:54:50;;;;;;;8.32;4.13;;;;;;;7.79;100.00;100947.66;10451876;28;20057;-79
2024/02/18 14:59:54;;;;;;;7.38;3.38;;;;;;;7.67;100.00;100933.22;10458296;28;20091;-78
2024/02/18 15:04:57;;;;;;;9.80;4.53;;;;;;;7.70;100.00;100908.97;10457158;28;20095;-78
2024/02/18 15:10:01;;;;;;;4.53;3.45;;;;;;;7.47;100.00;100892.50;10452774;28;20123;-79
2024/02/18 15:15:06;;;;;;;5.82;2.97;;;;;;;7.40;100.00;100899.16;10463975;28;20639;-79
2024/02/18 15:20:11;;;;;;;7.22;3.50;;;;;;;7.24;100.00;100901.91;10464426;28;20048;-78
2024/02/18 15:25:15;;;;;;;2.88;2.63;;;;;;;7.30;100.00;100903.38;10460434;28;20071;-78
2024/02/18 15:30:19;;;;;;;5.78;3.70;;;;;;;7.25;100.00;100889.41;10456474;28;20485;-78
2024/02/18 15:35:22;;;;;;;6.38;3.88;;;;;;;7.32;100.00;100879.19;10456929;28;20060;-78
2024/02/18 15:40:25;;;;;;;4.28;3.22;;;;;;;7.02;100.00;100861.34;10458493;28;20064;-78
2024/02/18 15:45:30;;;;;;;4.88;3.35;;;;;;;7.05;100.00;100854.03;10463403;28;20041;-79
2024/02/18 15:50:33;;;;;;;3.78;2.85;;;;;;;6.97;100.00;100845.63;10457745;28;20547;-79
2024/02/18 15:55:36;;;;;;;9.68;4.13;;;;;;;6.95;100.00;100820.78;10464745;28;20059;-78
2024/02/18 16:00:56;;;;;;;6.47;2.85;;;;;;;7.00;100.00;100807.19;10465496;28;20041;-78
2024/02/18 16:06:00;;;;;;;6.28;3.10;;;;;;;6.88;100.00;100789.19;10462688;28;20037;-78
2024/02/18 16:11:05;;;;;;;7.20;3.45;;;;;;;6.69;100.00;100790.25;10440242;28;20037;-78
2024/02/18 16:16:09;;;;;;;6.72;2.78;;;;;;;6.68;100.00;100764.50;10457485;28;20076;-78
2024/02/18 16:21:12;;;;;;;7.03;2.85;;;;;;;6.62;100.00;100757.72;10460704;28;20043;-79
2024/02/18 16:26:15;;;;;;;8.75;3.42;;;;;;;6.72;100.00;100743.81;10460597;28;20040;-80
2024/02/18 16:31:20;;;;;;;4.78;3.20;;;;;;;6.56;100.00;100746.53;10454968;28;20069;-79
2024/02/18 16:36:23;;;;;;;6.35;3.70;;;;;;;6.42;100.00;100738.47;10450555;28;20043;-79
2024/02/18 16:41:26;;;;;;;4.35;2.90;;;;;;;6.69;100.00;100727.97;10455673;28;20043;-79
2024/02/18 16:46:31;;;;;;;5.88;3.22;;;;;;;6.61;100.00;100718.63;10461406;28;20120;-79
2024/02/18 16:51:34;;;;;;;11.60;3.13;;;;;;;6.78;100.00;100711.44;10448523;28;20049;-80
2024/02/18 16:56:38;;;;;;;4.10;3.33;;;;;;;6.75;100.00;100700.94;10463402;28;20080;-80
2024/02/18 17:01:47;;;;;;;4.93;3.67;;;;;;;6.54;100.00;100682.56;10463215;28;20087;-80
2024/02/18 17:06:51;;;;;;;4.55;3.30;;;;;;;6.77;100.00;100683.00;10453301;28;20052;-80
2024/02/18 17:11:54;;;;;;;4.10;2.70;;;;;;;6.42;100.00;100677.06;10457480;28;20048;-79
2024/02/18 17:16:58;;;;;;;3.97;2.42;;;;;;;6.54;100.00;100671.88;10459890;28;20045;-81
2024/02/18 17:22:01;;;;;;;4.03;3.63;;;;;;;6.81;100.00;100648.00;10456970;28;20045;-80
2024/02/18 17:27:05;;;;;;;5.10;3.22;;;;;;;6.58;100.00;100637.84;10444162;28;20053;-78
2024/02/18 17:32:09;;;;;;;4.75;3.08;;;;;;;6.70;100.00;100642.47;10445738;28;20056;-77
2024/02/18 17:37:12;;;;;;;4.07;2.78;;;;;;;6.58;100.00;100632.50;10433756;28;20416;-79
2024/02/18 17:42:17;;;;;;;7.05;2.85;;;;;;;6.78;100.00;100616.16;10443361;28;20415;-80
2024/02/18 17:47:23;;;;;;;3.45;3.15;;;;;;;6.65;100.00;100609.00;10456940;28;20049;-79
2024/02/18 17:52:26;;;;;;;4.35;2.88;;;;;;;6.64;100.00;100602.81;10452994;28;20103;-79
2024/02/18 17:57:29;;;;;;;2.28;2.03;;;;;;;6.56;100.00;100600.59;10455915;28;20476;-78
2024/02/18 18:02:34;;;;;;;4.35;2.97;;;;;;;6.68;100.00;100598.97;10456069;28;20103;-78
2024/02/18 18:07:38;;;;;;;3.50;3.20;;;;;;;6.67;100.00;100580.41;10441283;28;20099;-81
2024/02/18 18:12:41;;;;;;;2.40;2.20;;;;;;;6.58;100.00;100606.72;10448136;28;20076;-78
2024/02/18 18:17:46;;;;;;;4.20;3.30;;;;;;;6.95;100.00;100574.22;10448198;28;20484;-78
2024/02/18 18:22:51;;;;;;;3.83;3.47;;;;;;;6.68;100.00;100561.59;10438501;28;20155;-79
2024/02/18 18:27:54;;;;;;;3.80;3.50;;;;;;;6.58;100.00;100563.13;10454185;28;20079;-79
2024/02/18 18:32:58;;;;;;;5.07;3.65;;;;;;;6.60;100.00;100563.88;10456694;28;20045;-78
2024/02/18 18:38:01;;;;;;;5.97;5.38;;;;;;;6.82;100.00;100569.59;10451664;28;20051;-78
2024/02/18 18:43:04;;;;;;;6.25;5.60;;;;;;;6.75;100.00;100576.31;10449953;28;20084;-80
2024/02/18 18:48:09;;;;;;;5.72;5.13;;;;;;;6.95;100.00;100563.53;10433211;28;20568;-80
2024/02/18 18:53:12;;;;;;;6.80;6.00;;;;;;;6.94;100.00;100544.00;10442641;28;20037;-80
2024/02/18 18:58:15;;;;;;;7.80;6.88;;;;;;;7.03;100.00;100531.88;10446898;28;20080;-79
2024/02/18 19:03:20;;;;;;;11.40;7.05;;;;;;;7.10;100.00;100529.66;10448059;28;20075;-80
2024/02/18 19:08:23;;;;;;;7.88;5.35;;;;;;;7.26;100.00;100511.66;10447793;28;20458;-80
2024/02/18 19:13:26;;;;;;;7.95;6.88;;;;;;;7.32;100.00;100505.91;10473938;28;20052;-80
2024/02/18 19:18:46;;;;;;;10.10;7.22;;;;;;;7.43;100.00;100491.84;10460547;28;20064;-80
2024/02/18 19:23:50;;;;;;;4.22;3.42;;;;;;;7.51;100.00;100489.53;10462675;28;20488;-79
2024/02/18 19:28:53;;;;;;;10.93;8.70;;;;;;;7.81;100.00;100477.72;10452590;28;20699;-79
2024/02/18 19:33:58;;;;;;;9.13;8.05;;;;;;;7.50;100.00;100474.47;10463959;28;20045;-79
2024/02/18 19:39:03;;;;;;;6.65;5.05;;;;;;;7.29;100.00;100466.03;10448238;28;20045;-80
2024/02/18 19:44:07;;;;;;;7.22;6.22;;;;;;;7.38;100.00;100460.09;10439223;28;20087;-81
2024/02/18 19:49:11;;;;;;;9.77;8.77;;;;;;;7.50;100.00;100450.41;10431158;28;20037;-80
2024/02/18 19:54:15;;;;;;;11.20;8.88;;;;;;;7.63;100.00;100455.78;10451394;28;20045;-81
2024/02/18 19:59:18;;;;;;;7.30;6.53;;;;;;;7.36;100.00;100458.50;10446712;28;20067;-77
2024/02/18 20:04:23;;;;;;;4.55;3.45;;;;;;;7.48;100.00;100454.97;10445749;28;20049;-82
2024/02/18 20:09:26;;;;;;;4.38;3.97;;;;;;;7.43;100.00;100467.78;10438624;28;20107;-79
2024/02/18 20:14:29;;;;;;;4.90;4.40;;;;;;;7.32;100.00;100465.84;10434394;28;20040;-80
2024/02/18 20:19:33;;;;;;;2.85;2.58;;;;;;;7.33;100.00;100454.19;10450847;28;20045;-80
2024/02/18 20:24:41;;;;;;;4.38;2.10;;;;;;;7.15;100.00;100463.44;10446796;28;20595;-79
2024/02/18 20:29:44;;;;;;;3.08;1.90;;;;;;;7.23;100.00;100458.44;10442181;28;20045;-82
2024/02/18 20:34:49;;;;;;;1.10;1.10;;;;;;;7.26;100.00;100482.28;10440700;28;20047;-81
2024/02/18 20:39:55;;;;;;;2.35;1.05;;;;;;;7.18;100.00;100476.56;10434585;28;20468;-82
2024/02/18 20:44:58;;;;;;;0.85;0.85;;;;;;;7.25;100.00;100481.44;10442360;28;20060;-79
2024/02/18 20:50:02;;;;;;;2.08;1.20;;;;;;;6.99;100.00;100487.59;10448125;28;20047;-79
2024/02/18 20:55:06;;;;;;;1.33;0.80;;;;;;;7.01;100.00;100472.34;10449817;28;20417;-78
2024/02/18 21:00:10;;;;;;;0.85;0.60;;;;;;;6.89;100.00;100483.81;10442975;28;20042;-79
2024/02/18 21:05:15;;;;;;;1.05;0.77;;;;;;;6.81;100.00;100510.97;10436866;28;20037;-80
2024/02/18 21:10:19;;;;;;;0.63;0.63;;;;;;;6.95;100.00;100494.09;10444337;28;20116;-80
2024/02/18 21:15:22;;;;;;;1.00;0.65;;;;;;;6.91;100.00;100493.44;10445871;28;20078;-78
2024/02/18 21:20:27;;;;;;;1.42;0.77;;;;;;;7.06;100.00;100500.47;10445744;28;20049;-77
2024/02/18 21:25:30;;;;;;;1.30;0.60;;;;;;;6.99;100.00;100503.63;10443847;28;20045;-78
2024/02/18 21:30:33;;;;;;;0.95;0.60;;;;;;;6.44;100.00;100513.25;10436746;28;20068;-78
2024/02/18 21:35:37;;;;;;;1.77;0.63;;;;;;;6.79;100.00;100524.41;10437093;28;20072;-78
2024/02/18 21:40:41;;;;;;;0.93;0.63;;;;;;;6.60;100.00;100516.69;10429619;28;20040;-79
2024/02/18 21:45:44;;;;;;;0.85;0.60;;;;;;;6.71;100.00;100536.53;10440505;28;20041;-77
2024/02/18 21:50:48;;;;;;;0.50;0.50;;;;;;;6.61;100.00;100550.47;10438169;28;20043;-77
2024/02/18 21:55:51;;;;;;;0.60;0.60;;;;;;;6.49;100.00;100548.53;10436593;28;20505;-79
2024/02/18 22:00:54;;;;;;;0.50;0.50;;;;;;;6.15;100.00;100561.25;10440838;28;20037;-78
2024/02/18 22:05:58;;;;;;;0.57;0.47;;;;;;;6.42;100.00;100570.34;10435217;28;20049;-78
2024/02/18 22:11:02;;;;;;;1.48;0.77;;;;;;;6.46;100.00;100574.56;10441865;28;20049;-79
2024/02/18 22:16:05;;;;;;;0.80;0.80;;;;;;;6.27;100.00;100580.13;10467866;28;20055;-79
2024/02/18 22:21:09;;;;;;;1.45;0.90;;;;;;;6.51;100.00;100602.69;10444563;28;20588;-78
2024/02/18 22:26:12;;;;;;;0.98;0.98;;;;;;;6.12;100.00;100612.13;10451209;28;20411;-78
2024/02/18 22:31:15;;;;;;;1.02;0.90;;;;;;;6.20;100.00;100616.13;10435533;28;20041;-78
2024/02/18 22:36:20;;;;;;;1.38;1.10;;;;;;;6.18;100.00;100626.91;10440558;28;20041;-78
2024/02/18 22:41:22;;;;;;;1.27;1.17;;;;;;;6.32;100.00;100642.94;10433916;28;20044;-78
2024/02/18 22:46:25;;;;;;;1.27;1.17;;;;;;;6.52;100.00;100652.44;10441017;28;20049;-77
2024/02/18 22:51:30;;;;;;;1.08;0.98;;;;;;;6.45;100.00;100655.56;10437803;28;20394;-79
2024/02/18 22:56:33;;;;;;;1.10;0.90;;;;;;;6.45;100.00;100671.59;10433001;28;20103;-80
2024/02/18 23:01:37;;;;;;;1.65;1.20;;;;;;;6.29;100.00;100685.81;10441069;28;20050;-80
2024/02/18 23:06:41;;;;;;;1.20;1.10;;;;;;;6.18;100.00;100693.59;10443610;28;20099;-78